13°C Temp
12°C Dewpoint
% Humidity
Temperature
19 KM/H
12 MPH
10 KTS
20°
North North
East

Wind Speed
Misty
Conditions
Pressure 1005.92 (hPa) - 29.7 (in)
Visibility 2.2 (mi) - 3.5 (km)

Current Conditions
EHLW
Location 6km (3.2mi)
Metar :EHLW 191830Z AUTO 02010KT 350V050 3500 BR OVC002 13/12 Q1006 AMB
Sun 19th May 19:30 pm

Airport
  Metar Aviation API Data Provided by https://www.checkwx.com/ PHP scripts by weather34.com ©2019